Time;durP1;ratioP1;P1;durP2;ratioP2;P2;SDS_P1;SDS_P2;PMS_P1;PMS_P2;Temp;Humidity;BMP_temperature;BMP_pressure;BME280_temperature;BME280_humidity;BME280_pressure;Samples;Min_cycle;Max_cycle;Signal;HPM_P1;HPM_P2
2022/06/16 00:00:31;;;;;;;5.23;4.00;;;16.40;99.90;;;;;;5014208;28;20215;-63
2022/06/16 00:02:58;;;;;;;7.40;3.87;;;16.40;99.90;;;;;;5013925;28;20727;-63
2022/06/16 00:05:29;;;;;;;6.70;3.63;;;16.30;99.90;;;;;;5014065;28;20277;-63
2022/06/16 00:07:56;;;;;;;5.90;3.60;;;16.30;99.90;;;;;;5013585;28;20622;-62
2022/06/16 00:10:24;;;;;;;8.17;3.80;;;16.20;99.90;;;;;;5014036;28;20206;-60
2022/06/16 00:12:51;;;;;;;5.03;3.60;;;16.20;99.90;;;;;;5013491;28;20226;-63
2022/06/16 00:15:21;;;;;;;8.33;3.90;;;16.10;99.90;;;;;;5013500;28;20729;-61
2022/06/16 00:17:47;;;;;;;6.87;3.77;;;16.10;99.90;;;;;;5013430;28;20207;-63
2022/06/16 00:20:15;;;;;;;6.90;3.73;;;16.00;99.90;;;;;;5013706;28;20629;-63
2022/06/16 00:22:43;;;;;;;5.20;3.17;;;16.00;99.90;;;;;;5013567;28;20261;-64
2022/06/16 00:25:11;;;;;;;6.97;3.50;;;16.00;99.90;;;;;;5013238;28;20261;-63
2022/06/16 00:27:38;;;;;;;7.57;4.00;;;15.90;99.90;;;;;;5013241;28;20579;-64
2022/06/16 00:30:06;;;;;;;8.57;3.80;;;15.80;99.90;;;;;;5013596;28;20211;-63
2022/06/16 00:32:33;;;;;;;6.43;3.60;;;15.80;99.90;;;;;;5013269;28;20280;-64
2022/06/16 00:35:00;;;;;;;7.57;3.70;;;15.70;99.90;;;;;;5013336;28;20284;-61
2022/06/16 00:37:26;;;;;;;6.60;3.60;;;15.70;99.90;;;;;;5013206;28;20211;-61
2022/06/16 00:39:54;;;;;;;5.50;3.70;;;15.70;99.90;;;;;;5013187;28;20257;-63
2022/06/16 00:42:23;;;;;;;7.83;3.70;;;15.60;99.90;;;;;;5013228;28;20223;-63
2022/06/16 00:44:52;;;;;;;5.67;3.93;;;15.60;99.90;;;;;;5013283;28;20223;-63
2022/06/16 00:47:20;;;;;;;5.43;3.53;;;15.50;99.90;;;;;;5012827;28;20264;-63
2022/06/16 00:49:50;;;;;;;9.13;3.90;;;15.50;99.90;;;;;;5013056;28;20293;-62
2022/06/16 00:52:20;;;;;;;9.40;4.30;;;15.60;99.90;;;;;;5012587;28;20211;-62
2022/06/16 00:54:52;;;;;;;7.53;4.23;;;15.50;99.90;;;;;;5013339;28;20231;-61
2022/06/16 00:57:26;;;;;;;6.83;3.93;;;15.50;99.90;;;;;;5012771;28;20207;-60
2022/06/16 00:59:53;;;;;;;6.37;3.77;;;15.50;99.90;;;;;;5012904;28;20257;-63
2022/06/16 01:02:20;;;;;;;8.63;4.50;;;15.40;99.90;;;;;;5012746;28;20210;-63
2022/06/16 01:04:52;;;;;;;8.00;4.33;;;15.40;99.90;;;;;;5012314;28;20807;-62
2022/06/16 01:07:23;;;;;;;8.27;4.20;;;15.40;99.90;;;;;;5012897;28;20207;-61
2022/06/16 01:09:50;;;;;;;5.07;3.93;;;15.30;99.90;;;;;;5013013;28;20293;-61
2022/06/16 01:15:31;;;;;;;8.63;4.70;;;15.20;99.90;;;;;;5012592;28;20365;-63
2022/06/16 01:18:10;;;;;;;8.73;5.00;;;15.20;99.90;;;;;;5012526;28;20210;-63
2022/06/16 01:20:44;;;;;;;8.63;5.33;;;15.20;99.90;;;;;;5012674;28;20207;-62
2022/06/16 01:23:42;;;;;;;6.60;4.43;;;15.20;99.90;;;;;;5012632;28;20205;-63
2022/06/16 01:26:29;;;;;;;7.77;4.60;;;15.10;99.90;;;;;;5012148;28;20226;-61
2022/06/16 01:29:09;;;;;;;6.63;4.50;;;15.10;99.90;;;;;;5012617;28;20769;-63
2022/06/16 01:31:44;;;;;;;8.33;4.70;;;15.10;99.90;;;;;;5012625;28;20206;-63
2022/06/16 01:34:18;;;;;;;7.43;4.20;;;15.10;99.90;;;;;;5012576;28;20214;-63
2022/06/16 01:36:51;;;;;;;6.53;4.23;;;15.00;99.90;;;;;;5012009;28;20301;-64
2022/06/16 01:39:25;;;;;;;9.47;4.30;;;15.00;99.90;;;;;;5012559;28;20207;-63
2022/06/16 01:41:58;;;;;;;10.70;4.50;;;15.00;99.90;;;;;;5012082;28;20213;-63
2022/06/16 01:44:32;;;;;;;10.97;3.87;;;15.00;99.90;;;;;;5012381;28;20230;-63
2022/06/16 01:47:06;;;;;;;7.07;3.90;;;14.90;99.90;;;;;;5011430;28;20276;-63
2022/06/16 01:49:39;;;;;;;7.83;4.23;;;14.90;99.90;;;;;;5012180;28;20209;-63
2022/06/16 01:52:11;;;;;;;10.40;4.20;;;14.90;99.90;;;;;;5012017;28;20214;-63
2022/06/16 01:54:42;;;;;;;8.60;4.17;;;14.80;99.90;;;;;;5011796;28;20226;-61
2022/06/16 01:57:13;;;;;;;6.50;4.17;;;14.80;99.90;;;;;;5012004;28;20211;-64
2022/06/16 01:59:45;;;;;;;6.07;3.73;;;14.90;99.90;;;;;;5011984;28;20206;-63
2022/06/16 02:02:14;;;;;;;8.27;3.60;;;14.90;99.90;;;;;;5011959;28;20278;-62
2022/06/16 02:04:45;;;;;;;8.93;4.23;;;14.80;99.90;;;;;;5011695;28;20783;-63
2022/06/16 02:07:17;;;;;;;7.47;4.63;;;14.80;99.90;;;;;;5011415;28;20210;-63
2022/06/16 02:09:47;;;;;;;8.60;4.47;;;14.80;99.90;;;;;;5012114;28;20210;-62
2022/06/16 02:15:07;;;;;;;8.70;4.77;;;14.80;99.90;;;;;;5011270;28;20238;-63
2022/06/16 02:17:33;;;;;;;8.63;4.53;;;14.80;99.90;;;;;;5011657;28;20213;-63
2022/06/16 02:20:00;;;;;;;10.77;5.60;;;14.80;99.90;;;;;;5011244;28;20681;-63
2022/06/16 02:22:27;;;;;;;5.17;4.57;;;14.70;99.90;;;;;;5012046;28;20210;-63
2022/06/16 02:24:54;;;;;;;8.70;4.97;;;14.70;99.90;;;;;;5012653;28;20234;-63
2022/06/16 02:27:21;;;;;;;8.80;5.53;;;14.70;99.90;;;;;;5015510;28;20209;-63
2022/06/16 02:29:48;;;;;;;9.37;4.70;;;14.70;99.90;;;;;;5015865;28;20221;-64
2022/06/16 02:32:35;;;;;;;7.07;4.53;;;14.60;99.90;;;;;;5015609;28;20236;-63
2022/06/16 02:35:12;;;;;;;5.80;4.60;;;14.60;99.90;;;;;;5015779;28;20262;-63
2022/06/16 02:37:54;;;;;;;7.90;4.60;;;14.60;99.90;;;;;;5015457;28;20210;-62
2022/06/16 02:40:34;;;;;;;10.07;4.57;;;14.60;99.90;;;;;;5015588;28;20213;-60
2022/06/16 02:43:08;;;;;;;6.13;4.60;;;14.50;99.90;;;;;;5015670;28;20288;-63
2022/06/16 02:45:42;;;;;;;9.67;5.20;;;14.50;99.90;;;;;;5015849;28;20265;-63
2022/06/16 02:48:14;;;;;;;6.33;4.80;;;14.50;99.90;;;;;;5015234;28;20613;-63
2022/06/16 02:50:48;;;;;;;10.03;4.57;;;14.50;99.90;;;;;;5015206;28;20230;-64
2022/06/16 02:53:29;;;;;;;15.47;4.70;;;14.50;99.90;;;;;;5015480;28;20690;-63
2022/06/16 02:56:02;;;;;;;8.23;4.50;;;14.50;99.90;;;;;;5015134;28;20345;-63
2022/06/16 02:58:31;;;;;;;8.13;4.13;;;14.40;99.90;;;;;;5015559;28;20206;-64
2022/06/16 03:01:01;;;;;;;9.40;4.20;;;14.40;99.90;;;;;;5015107;28;20279;-63
2022/06/16 03:03:33;;;;;;;8.17;4.53;;;14.40;99.90;;;;;;5014869;28;20636;-63
2022/06/16 03:05:59;;;;;;;8.47;5.07;;;14.40;99.90;;;;;;5014791;28;20230;-63
2022/06/16 03:08:29;;;;;;;10.97;4.83;;;14.30;99.90;;;;;;5015403;28;20247;-63
2022/06/16 03:10:58;;;;;;;7.43;4.60;;;14.30;99.90;;;;;;5015091;28;20210;-63
2022/06/16 03:13:27;;;;;;;8.07;5.07;;;14.30;99.90;;;;;;5014117;28;20238;-64
2022/06/16 03:15:56;;;;;;;8.23;4.90;;;14.20;99.90;;;;;;5014431;28;20236;-63
2022/06/16 03:18:23;;;;;;;10.80;4.83;;;14.30;99.90;;;;;;5014552;28;20218;-64
2022/06/16 03:20:53;;;;;;;8.47;4.60;;;14.30;99.90;;;;;;5014976;28;20210;-63
2022/06/16 03:23:20;;;;;;;6.87;4.57;;;14.20;99.90;;;;;;5014750;28;20214;-64
2022/06/16 03:25:47;;;;;;;7.60;4.60;;;14.30;99.90;;;;;;5014751;28;20231;-64
2022/06/16 03:28:15;;;;;;;12.17;4.90;;;14.20;99.90;;;;;;5014056;28;20267;-63
2022/06/16 03:30:42;;;;;;;8.57;4.50;;;14.20;99.90;;;;;;5014551;28;20210;-63
2022/06/16 03:33:11;;;;;;;7.50;5.10;;;14.20;99.90;;;;;;5014343;28;20215;-63
2022/06/16 03:35:38;;;;;;;8.13;4.73;;;14.20;99.90;;;;;;5014121;28;20229;-64
2022/06/16 03:38:07;;;;;;;7.60;4.77;;;14.10;99.90;;;;;;5013998;28;20213;-63
2022/06/16 03:40:34;;;;;;;6.27;5.00;;;14.10;99.90;;;;;;5014384;28;20765;-64
2022/06/16 03:43:01;;;;;;;8.93;4.70;;;14.00;99.90;;;;;;5014242;28;20625;-63
2022/06/16 03:45:29;;;;;;;10.57;4.80;;;14.00;99.90;;;;;;5014290;28;20280;-64
2022/06/16 03:47:55;;;;;;;8.60;5.53;;;13.90;99.90;;;;;;5014379;28;20212;-63
2022/06/16 03:50:22;;;;;;;8.20;5.50;;;13.90;99.90;;;;;;5014246;28;20618;-60
2022/06/16 03:52:49;;;;;;;8.10;5.07;;;13.90;99.90;;;;;;5014090;28;20208;-62
2022/06/16 03:55:17;;;;;;;10.63;4.80;;;13.90;99.90;;;;;;5013823;28;20707;-63
2022/06/16 03:57:45;;;;;;;6.07;4.80;;;13.90;99.90;;;;;;5013684;28;20217;-63
2022/06/16 04:00:13;;;;;;;7.80;4.80;;;13.80;99.90;;;;;;5014352;28;20209;-63
2022/06/16 04:02:41;;;;;;;7.43;4.70;;;13.90;99.90;;;;;;5013785;28;20274;-63
2022/06/16 04:05:08;;;;;;;9.27;5.10;;;13.90;99.90;;;;;;5013872;28;20850;-63
2022/06/16 04:07:35;;;;;;;7.20;4.60;;;13.80;99.90;;;;;;5013522;28;20746;-64
2022/06/16 04:10:02;;;;;;;9.93;4.10;;;13.80;99.90;;;;;;5013912;28;20212;-63
2022/06/16 04:12:30;;;;;;;7.63;3.97;;;13.80;99.90;;;;;;5013949;28;20266;-63
2022/06/16 04:14:57;;;;;;;5.93;4.27;;;13.90;99.90;;;;;;5013847;28;20238;-63
2022/06/16 04:17:23;;;;;;;6.03;3.40;;;13.80;99.90;;;;;;5013459;28;20214;-63
2022/06/16 04:22:35;;;;;;;7.67;4.07;;;13.80;99.90;;;;;;5017783;28;20201;-63
2022/06/16 04:25:01;;;;;;;5.23;3.90;;;13.80;99.90;;;;;;5018134;28;20258;-63
2022/06/16 04:27:29;;;;;;;7.50;3.70;;;13.80;99.90;;;;;;5014661;28;20217;-61
2022/06/16 04:29:56;;;;;;;7.37;4.20;;;13.80;99.90;;;;;;5014204;28;20219;-63
2022/06/16 04:32:23;;;;;;;4.20;3.63;;;13.80;99.90;;;;;;5014176;28;20218;-62
2022/06/16 04:34:50;;;;;;;9.07;3.90;;;13.80;99.90;;;;;;5013103;28;20232;-62
2022/06/16 04:37:16;;;;;;;6.73;4.23;;;13.70;99.90;;;;;;5013067;28;20255;-62
2022/06/16 04:39:43;;;;;;;5.50;3.70;;;13.70;99.90;;;;;;5013408;28;20278;-63
2022/06/16 04:42:10;;;;;;;5.30;3.67;;;13.80;99.90;;;;;;5013813;28;20265;-62
2022/06/16 04:44:39;;;;;;;4.93;3.47;;;13.80;99.90;;;;;;5013584;28;20736;-60
2022/06/16 04:47:06;;;;;;;4.63;3.50;;;13.80;99.90;;;;;;5012595;28;20670;-62
2022/06/16 04:49:33;;;;;;;4.07;3.17;;;13.90;99.90;;;;;;5012831;28;20250;-64
2022/06/16 04:52:00;;;;;;;7.37;3.60;;;14.00;99.90;;;;;;5012939;28;20270;-60
2022/06/16 04:54:26;;;;;;;8.13;3.70;;;14.10;99.90;;;;;;5013376;28;20228;-63
2022/06/16 04:56:53;;;;;;;5.40;3.20;;;14.10;99.90;;;;;;5012917;28;20209;-63
2022/06/16 04:59:20;;;;;;;5.87;3.70;;;14.20;99.90;;;;;;5012903;28;20231;-62
2022/06/16 05:01:48;;;;;;;6.10;3.37;;;14.20;99.90;;;;;;5013144;28;20239;-63
2022/06/16 05:04:15;;;;;;;5.43;3.27;;;14.20;99.90;;;;;;5012766;28;20264;-63
2022/06/16 05:06:42;;;;;;;6.07;3.23;;;14.30;99.90;;;;;;5011781;28;20228;-63
2022/06/16 05:09:08;;;;;;;4.07;3.07;;;14.40;99.90;;;;;;5013027;28;20591;-63
2022/06/16 05:11:35;;;;;;;6.97;3.13;;;14.40;99.90;;;;;;5013036;28;20213;-62
2022/06/16 05:14:02;;;;;;;6.13;3.10;;;14.40;99.90;;;;;;5012574;28;20225;-63
2022/06/16 05:16:29;;;;;;;4.63;3.30;;;14.40;99.90;;;;;;5012302;28;20244;-62
2022/06/16 05:18:57;;;;;;;8.90;3.80;;;14.50;99.90;;;;;;5012543;28;20213;-63
2022/06/16 05:21:24;;;;;;;5.07;3.67;;;14.50;99.90;;;;;;5013095;28;20213;-63
2022/06/16 05:23:51;;;;;;;4.67;3.37;;;14.50;99.90;;;;;;5012588;28;20256;-63
2022/06/16 05:26:18;;;;;;;4.00;3.03;;;14.50;99.90;;;;;;5012317;28;20230;-61
2022/06/16 05:28:45;;;;;;;6.50;3.27;;;14.60;99.90;;;;;;5012594;28;20206;-63
2022/06/16 05:31:11;;;;;;;5.10;3.60;;;14.60;99.90;;;;;;5012232;28;20263;-63
2022/06/16 05:33:38;;;;;;;5.80;3.20;;;14.60;99.90;;;;;;5012348;28;20280;-63
2022/06/16 05:36:08;;;;;;;4.87;3.57;;;14.60;99.90;;;;;;5011791;28;20234;-63
2022/06/16 05:38:36;;;;;;;6.60;3.73;;;14.70;99.90;;;;;;5012616;28;20213;-63
2022/06/16 05:41:06;;;;;;;6.23;3.40;;;14.70;99.90;;;;;;5012440;28;20209;-60
2022/06/16 05:43:34;;;;;;;6.27;3.10;;;14.70;99.90;;;;;;5012162;28;20672;-63
2022/06/16 05:46:01;;;;;;;3.57;2.87;;;14.80;99.90;;;;;;5011884;28;20254;-63
2022/06/16 05:48:29;;;;;;;5.70;3.30;;;14.90;99.90;;;;;;5012358;28;20265;-63
2022/06/16 05:50:56;;;;;;;7.17;3.20;;;14.90;99.90;;;;;;5012406;28;20253;-63
2022/06/16 05:53:24;;;;;;;5.70;3.10;;;14.90;99.90;;;;;;5012159;28;20625;-63
2022/06/16 05:55:50;;;;;;;6.47;3.00;;;14.90;99.90;;;;;;5012273;28;20713;-65
2022/06/16 05:58:18;;;;;;;7.43;3.07;;;14.90;99.90;;;;;;5011608;28;20213;-63
2022/06/16 06:00:44;;;;;;;6.67;3.30;;;14.90;99.90;;;;;;5011801;28;20305;-63
2022/06/16 06:03:11;;;;;;;7.37;3.13;;;15.00;99.90;;;;;;5012054;28;20256;-64
2022/06/16 06:05:38;;;;;;;5.40;2.93;;;15.00;99.90;;;;;;5012434;28;20218;-63
2022/06/16 06:16:28;;;;;;;5.47;3.17;;;15.00;99.90;;;;;;5000179;28;20245;-60
2022/06/16 06:18:55;;;;;;;6.50;3.13;;;15.00;99.90;;;;;;5011879;28;20212;-61
2022/06/16 06:24:03;;;;;;;8.97;3.20;;;15.20;99.90;;;;;;5011810;28;20234;-63
2022/06/16 06:26:31;;;;;;;4.70;3.13;;;15.20;99.90;;;;;;5011271;28;20223;-62
2022/06/16 06:28:57;;;;;;;5.60;2.90;;;15.30;99.90;;;;;;5011954;28;20290;-62
2022/06/16 06:31:24;;;;;;;5.80;2.80;;;15.20;99.90;;;;;;5011702;28;20211;-61
2022/06/16 06:33:51;;;;;;;5.90;3.00;;;15.30;99.90;;;;;;5011584;28;20678;-61
2022/06/16 06:36:18;;;;;;;4.60;2.70;;;15.40;99.90;;;;;;5011901;28;20634;-62
2022/06/16 06:38:44;;;;;;;4.37;3.00;;;15.50;99.90;;;;;;5011633;28;20230;-62
2022/06/16 06:41:11;;;;;;;6.03;3.20;;;15.60;99.90;;;;;;5011714;28;20257;-62
2022/06/16 06:43:39;;;;;;;5.10;2.97;;;15.60;99.90;;;;;;5011580;28;20217;-62
2022/06/16 06:46:06;;;;;;;5.90;3.57;;;15.70;99.90;;;;;;5011427;28;20665;-61
2022/06/16 06:48:33;;;;;;;4.60;2.80;;;15.70;99.90;;;;;;5011569;28;20207;-62
2022/06/16 06:50:59;;;;;;;3.67;3.20;;;15.80;99.90;;;;;;5011965;28;20276;-62
2022/06/16 06:53:26;;;;;;;6.60;2.50;;;16.00;99.90;;;;;;5011702;28;20555;-62
2022/06/16 06:55:53;;;;;;;4.77;2.60;;;16.20;99.90;;;;;;5010788;28;20725;-63
2022/06/16 06:58:22;;;;;;;4.07;2.23;;;16.30;99.90;;;;;;5011657;28;20211;-62
2022/06/16 07:00:53;;;;;;;3.60;2.60;;;16.20;99.90;;;;;;5011472;28;20258;-62
2022/06/16 07:03:20;;;;;;;3.77;2.10;;;16.30;99.90;;;;;;5011389;28;20223;-63
2022/06/16 07:05:47;;;;;;;6.00;3.40;;;16.40;99.90;;;;;;5011553;28;20223;-62
2022/06/16 07:08:14;;;;;;;2.87;2.17;;;16.50;99.90;;;;;;5011469;28;20212;-63
2022/06/16 07:10:41;;;;;;;5.03;2.20;;;16.60;99.90;;;;;;5011991;28;20214;-63
2022/06/16 07:13:08;;;;;;;6.00;2.57;;;16.80;99.90;;;;;;5015229;28;20213;-61
2022/06/16 07:15:35;;;;;;;4.57;2.53;;;16.80;99.90;;;;;;5014747;28;20266;-64
2022/06/16 07:18:03;;;;;;;6.33;2.30;;;16.90;99.90;;;;;;5014503;28;20242;-63
2022/06/16 07:20:30;;;;;;;3.80;2.30;;;17.00;99.40;;;;;;5015201;28;20217;-63
2022/06/16 07:22:57;;;;;;;4.27;2.40;;;16.90;99.40;;;;;;5014682;28;20210;-64
2022/06/16 07:25:24;;;;;;;4.60;2.07;;;17.10;99.90;;;;;;5014632;28;20235;-64
2022/06/16 07:27:53;;;;;;;3.63;2.30;;;17.30;99.50;;;;;;5013955;28;20218;-65
2022/06/16 07:30:21;;;;;;;5.03;2.20;;;17.20;92.80;;;;;;5014641;28;20696;-63
2022/06/16 07:32:48;;;;;;;5.00;1.70;;;17.10;93.70;;;;;;5014782;28;20207;-63
2022/06/16 07:35:19;;;;;;;5.83;1.90;;;17.40;91.30;;;;;;5014690;28;20232;-63
2022/06/16 07:37:46;;;;;;;2.87;1.90;;;17.30;71.90;;;;;;5014551;28;20284;-63
2022/06/16 07:40:14;;;;;;;4.77;2.00;;;17.40;94.10;;;;;;5015311;28;20285;-63
2022/06/16 07:42:41;;;;;;;7.23;2.43;;;17.70;81.60;;;;;;5014796;28;20917;-63
2022/06/16 07:45:09;;;;;;;3.87;2.00;;;17.90;90.00;;;;;;5014594;28;20227;-64
2022/06/16 07:47:36;;;;;;;5.93;2.47;;;17.90;78.20;;;;;;5014264;28;20673;-63
2022/06/16 07:50:04;;;;;;;4.60;2.23;;;17.80;76.50;;;;;;5013859;28;20677;-64
2022/06/16 07:52:33;;;;;;;4.83;2.17;;;17.90;90.60;;;;;;5014012;28;20214;-63
2022/06/16 07:54:59;;;;;;;3.97;1.93;;;18.10;92.30;;;;;;5014071;28;20233;-64
2022/06/16 07:57:27;;;;;;;4.23;2.00;;;18.30;81.40;;;;;;5014144;28;20207;-61
2022/06/16 07:59:55;;;;;;;2.77;1.90;;;18.40;75.10;;;;;;5014195;28;20277;-62
2022/06/16 08:02:21;;;;;;;3.83;1.93;;;18.40;69.70;;;;;;5014227;28;20261;-62
2022/06/16 08:04:48;;;;;;;2.83;2.07;;;18.40;92.30;;;;;;5014002;28;20925;-63
2022/06/16 08:07:15;;;;;;;4.87;2.13;;;18.70;76.20;;;;;;5013530;28;20253;-62
2022/06/16 08:09:43;;;;;;;3.50;1.90;;;18.60;69.80;;;;;;5014112;28;20703;-62
2022/06/16 08:12:11;;;;;;;3.47;1.90;;;18.80;68.90;;;;;;5014269;28;20265;-61
2022/06/16 08:14:41;;;;;;;1.83;1.43;;;19.00;69.30;;;;;;5013857;28;20243;-62
2022/06/16 08:17:11;;;;;;;3.57;1.80;;;18.80;55.10;;;;;;5013601;28;20628;-62
2022/06/16 08:19:39;;;;;;;4.03;1.80;;;18.90;54.10;;;;;;5014035;28;20557;-62
2022/06/16 08:22:06;;;;;;;3.57;1.80;;;18.90;48.90;;;;;;5012316;28;20214;-62
2022/06/16 08:24:33;;;;;;;3.03;1.57;;;18.90;47.60;;;;;;5013172;28;20207;-61
2022/06/16 08:27:02;;;;;;;2.37;1.60;;;18.80;40.60;;;;;;5013107;28;20674;-62
2022/06/16 08:29:29;;;;;;;7.53;2.10;;;18.60;49.90;;;;;;5013835;28;20203;-62
2022/06/16 08:31:57;;;;;;;3.73;1.83;;;18.70;41.80;;;;;;5013706;28;20211;-62
2022/06/16 08:34:24;;;;;;;2.17;1.40;;;18.90;51.90;;;;;;5013294;28;20673;-62
2022/06/16 08:36:51;;;;;;;3.53;1.77;;;19.00;39.20;;;;;;5013100;28;20223;-62
2022/06/16 08:39:18;;;;;;;4.10;1.93;;;19.20;44.60;;;;;;5013211;28;20632;-62
2022/06/16 08:41:49;;;;;;;4.53;1.60;;;19.50;44.40;;;;;;5013905;28;20215;-60
2022/06/16 08:44:25;;;;;;;8.53;1.67;;;19.30;43.10;;;;;;5013591;28;20207;-61
2022/06/16 08:47:02;;;;;;;3.07;1.70;;;19.30;53.40;;;;;;5013208;28;20207;-60
2022/06/16 08:49:39;;;;;;;2.47;1.40;;;19.40;49.80;;;;;;5013295;28;20736;-60
2022/06/16 08:52:21;;;;;;;3.60;1.40;;;19.20;38.70;;;;;;5013611;28;20207;-61
2022/06/16 08:54:58;;;;;;;3.77;1.57;;;19.20;37.30;;;;;;5014060;28;20231;-61
2022/06/16 08:57:34;;;;;;;5.47;1.50;;;19.50;37.20;;;;;;5013942;28;20815;-60
2022/06/16 09:00:06;;;;;;;4.60;1.40;;;19.50;39.80;;;;;;5014142;28;20620;-60
2022/06/16 09:02:41;;;;;;;1.93;1.20;;;19.60;34.20;;;;;;5013763;28;20241;-60
2022/06/16 09:05:15;;;;;;;3.13;1.50;;;19.60;31.10;;;;;;5012964;28;20226;-60
2022/06/16 09:07:50;;;;;;;4.63;1.57;;;19.60;32.10;;;;;;5012946;28;20210;-62
2022/06/16 09:10:36;;;;;;;2.40;1.20;;;19.70;40.00;;;;;;5013790;28;20206;-61
2022/06/16 09:13:23;;;;;;;5.90;1.13;;;19.40;34.90;;;;;;5013116;28;20265;-61
2022/06/16 09:16:02;;;;;;;1.63;0.90;;;19.60;45.70;;;;;;5012517;28;20231;-61
2022/06/16 09:18:56;;;;;;;2.60;1.47;;;19.80;29.70;;;;;;5012742;28;20246;-62
2022/06/16 09:21:30;;;;;;;1.67;0.90;;;19.90;41.90;;;;;;5012914;28;20214;-61
2022/06/16 09:24:11;;;;;;;2.20;0.87;;;19.90;35.50;;;;;;5012630;28;20246;-61
2022/06/16 09:26:43;;;;;;;3.03;1.00;;;19.60;26.60;;;;;;5012451;28;20223;-61
2022/06/16 09:29:15;;;;;;;3.23;1.10;;;19.50;24.60;;;;;;5012626;28;20203;-61
2022/06/16 09:31:49;;;;;;;1.90;1.10;;;19.70;34.80;;;;;;5012987;28;20203;-61
2022/06/16 09:34:21;;;;;;;2.13;1.10;;;19.80;27.00;;;;;;5012264;28;20215;-61
2022/06/16 09:37:00;;;;;;;2.07;0.80;;;19.90;28.40;;;;;;5013149;28;20812;-61
2022/06/16 09:39:31;;;;;;;2.23;0.80;;;20.10;31.60;;;;;;5014008;28;20277;-61
2022/06/16 09:44:57;;;;;;;1.53;1.10;;;20.20;26.50;;;;;;5012430;28;20697;-61
2022/06/16 09:47:31;;;;;;;1.37;0.63;;;20.20;27.30;;;;;;5012134;28;20233;-61
2022/06/16 09:50:02;;;;;;;1.07;0.80;;;20.40;27.70;;;;;;5012110;28;20619;-61
2022/06/16 09:52:35;;;;;;;1.83;0.80;;;20.00;20.80;;;;;;5012411;28;20211;-60
2022/06/16 09:55:06;;;;;;;1.53;0.70;;;20.10;24.90;;;;;;5012162;28;20226;-61
2022/06/16 09:57:38;;;;;;;2.57;0.70;;;20.20;23.60;;;;;;5012109;28;20215;-61
2022/06/16 10:00:10;;;;;;;1.80;0.97;;;20.30;23.70;;;;;;5007840;28;20211;-62
2022/06/16 10:02:45;;;;;;;1.77;0.80;;;20.40;23.20;;;;;;5008631;28;20207;-60
2022/06/16 10:05:15;;;;;;;2.20;0.90;;;20.30;24.10;;;;;;5011671;28;20596;-61
2022/06/16 10:07:49;;;;;;;1.97;0.77;;;20.20;21.90;;;;;;5011371;28;20257;-65
2022/06/16 10:10:21;;;;;;;1.00;0.73;;;20.20;29.10;;;;;;5011938;28;20207;-61
2022/06/16 10:12:57;;;;;;;1.60;0.80;;;20.50;27.10;;;;;;5011226;28;20207;-66
2022/06/16 10:15:32;;;;;;;1.47;0.80;;;20.70;26.20;;;;;;5011727;28;20238;-62
2022/06/16 10:18:00;;;;;;;2.10;0.97;;;20.80;26.40;;;;;;5011380;28;20624;-61
2022/06/16 10:20:29;;;;;;;1.30;1.00;;;20.70;26.00;;;;;;5011506;28;20207;-60
2022/06/16 10:23:02;;;;;;;1.27;0.80;;;20.50;25.50;;;;;;5011341;28;20241;-62
2022/06/16 10:25:32;;;;;;;2.70;1.13;;;20.80;29.90;;;;;;5012041;28;20648;-62
2022/06/16 10:28:02;;;;;;;1.20;0.90;;;20.80;50.10;;;;;;5011194;28;20727;-62
2022/06/16 10:30:34;;;;;;;1.73;1.00;;;20.80;30.90;;;;;;5011673;28;20210;-62
2022/06/16 10:33:11;;;;;;;1.70;1.20;;;20.70;32.00;;;;;;5010691;28;20584;-63
2022/06/16 10:35:39;;;;;;;6.60;1.30;;;20.80;28.10;;;;;;5011096;28;20230;-63
2022/06/16 10:38:11;;;;;;;2.43;1.33;;;20.80;27.80;;;;;;5011284;28;20257;-64
2022/06/16 10:40:42;;;;;;;2.30;1.10;;;21.00;32.60;;;;;;5011565;28;20207;-64
2022/06/16 10:43:14;;;;;;;1.70;1.00;;;21.30;34.50;;;;;;5010891;28;20617;-63
2022/06/16 10:45:41;;;;;;;3.40;1.40;;;21.30;32.90;;;;;;5003900;28;20219;-64
2022/06/16 10:48:18;;;;;;;2.43;1.23;;;21.00;29.10;;;;;;5014497;28;20207;-66
2022/06/16 10:50:48;;;;;;;1.43;1.00;;;21.00;35.10;;;;;;5014686;28;20701;-63
2022/06/16 10:53:29;;;;;;;3.60;1.23;;;21.20;35.10;;;;;;5015593;28;20215;-62
2022/06/16 10:56:01;;;;;;;3.33;1.10;;;21.30;34.20;;;;;;5014896;28;20265;-64
2022/06/16 10:58:30;;;;;;;2.27;1.17;;;21.40;38.50;;;;;;5015087;28;20211;-64
2022/06/16 11:01:05;;;;;;;2.80;1.33;;;21.40;31.90;;;;;;5015526;28;20213;-63
2022/06/16 11:03:40;;;;;;;4.00;1.20;;;21.30;33.90;;;;;;5015242;28;20273;-65
2022/06/16 11:06:08;;;;;;;1.97;1.43;;;21.50;44.40;;;;;;5014881;28;20219;-63
2022/06/16 11:08:38;;;;;;;2.17;1.20;;;21.60;36.50;;;;;;5015093;28;20301;-63
2022/06/16 11:11:06;;;;;;;3.17;1.10;;;21.70;37.60;;;;;;5015171;28;20211;-63
2022/06/16 11:13:36;;;;;;;1.63;1.07;;;21.10;30.00;;;;;;5015113;28;20202;-63
2022/06/16 11:16:07;;;;;;;3.57;1.30;;;20.80;27.50;;;;;;5014555;28;20698;-64
2022/06/16 11:18:37;;;;;;;3.07;1.13;;;20.90;46.00;;;;;;5015182;28;20239;-65
2022/06/16 11:21:16;;;;;;;5.50;2.70;;;21.20;35.80;;;;;;5015750;28;20207;-64
2022/06/16 11:23:48;;;;;;;3.07;1.17;;;21.60;47.70;;;;;;5014996;28;20214;-65
2022/06/16 11:26:24;;;;;;;1.93;1.17;;;21.90;41.30;;;;;;5014729;28;20269;-64
2022/06/16 11:28:53;;;;;;;1.50;1.10;;;21.80;37.20;;;;;;5014905;28;20211;-64
2022/06/16 11:31:22;;;;;;;2.37;1.10;;;21.80;38.40;;;;;;5014552;28;20214;-63
2022/06/16 11:34:08;;;;;;;3.10;1.20;;;21.60;33.20;;;;;;5014344;28;20257;-63
2022/06/16 11:37:23;;;;;;;1.97;0.97;;;21.50;32.40;;;;;;5014136;28;20235;-63
2022/06/16 11:40:02;;;;;;;2.47;1.07;;;21.60;36.40;;;;;;4973133;28;20699;-64
2022/06/16 11:42:51;;;;;;;2.87;1.50;;;21.70;45.70;;;;;;4972632;28;20686;-63
2022/06/16 11:45:25;;;;;;;3.23;1.40;;;21.80;38.00;;;;;;5000489;28;20234;-63
2022/06/16 11:47:58;;;;;;;2.37;1.23;;;21.90;38.70;;;;;;5013846;28;20752;-63
2022/06/16 11:50:34;;;;;;;2.80;1.37;;;21.80;37.80;;;;;;5014431;28;20210;-64
2022/06/16 11:53:12;;;;;;;1.53;1.20;;;21.90;41.90;;;;;;5014320;28;20217;-63
2022/06/16 11:55:45;;;;;;;2.27;1.17;;;21.90;41.20;;;;;;5014415;28;20227;-64
2022/06/16 11:58:28;;;;;;;2.53;1.60;;;22.20;39.00;;;;;;5013115;28;20234;-63
2022/06/16 12:01:00;;;;;;;3.20;1.43;;;22.20;47.20;;;;;;5014060;28;20677;-63
2022/06/16 12:03:45;;;;;;;2.20;1.20;;;22.50;62.30;;;;;;5006650;28;20622;-63
2022/06/16 12:06:25;;;;;;;1.70;1.30;;;22.70;46.50;;;;;;5012700;28;20227;-66
2022/06/16 12:09:11;;;;;;;4.53;1.30;;;22.50;44.10;;;;;;5013541;28;20210;-61
2022/06/16 12:11:44;;;;;;;1.10;1.00;;;22.50;45.40;;;;;;5013671;28;20218;-62
2022/06/16 12:14:18;;;;;;;4.17;1.93;;;22.70;47.60;;;;;;5013591;28;20210;-61
2022/06/16 12:16:52;;;;;;;1.80;1.40;;;22.80;47.70;;;;;;5013097;28;20239;-64
2022/06/16 12:19:29;;;;;;;3.10;1.30;;;22.50;43.80;;;;;;5013568;28;20589;-61
2022/06/16 12:22:03;;;;;;;2.57;1.30;;;22.60;44.00;;;;;;5013097;28;20214;-61
2022/06/16 12:24:36;;;;;;;2.63;1.43;;;22.70;42.00;;;;;;5013597;28;20313;-62
2022/06/16 12:27:08;;;;;;;3.40;1.50;;;22.90;48.80;;;;;;5012948;28;20277;-62
2022/06/16 12:29:45;;;;;;;2.57;1.70;;;22.90;44.00;;;;;;5013082;28;20207;-62
2022/06/16 12:32:24;;;;;;;3.43;1.33;;;23.10;44.90;;;;;;5013136;28;20262;-62
2022/06/16 12:35:02;;;;;;;2.27;1.40;;;23.10;57.60;;;;;;5013250;28;20226;-62
2022/06/16 12:37:37;;;;;;;1.67;1.43;;;23.10;50.10;;;;;;5012830;28;20273;-62
2022/06/16 12:40:10;;;;;;;2.37;1.47;;;23.10;48.40;;;;;;5013344;28;20207;-62
2022/06/16 12:42:43;;;;;;;1.87;1.20;;;23.00;50.80;;;;;;5012782;28;20590;-62
2022/06/16 12:45:17;;;;;;;4.73;1.50;;;23.10;52.90;;;;;;5012435;28;20226;-64
2022/06/16 12:47:49;;;;;;;2.80;1.40;;;23.10;52.10;;;;;;5012469;28;20203;-65
2022/06/16 12:50:23;;;;;;;2.67;1.23;;;23.30;52.30;;;;;;5013086;28;20215;-66
2022/06/16 12:52:59;;;;;;;5.97;2.57;;;23.30;57.90;;;;;;5012737;28;20207;-66
2022/06/16 12:55:30;;;;;;;3.77;1.60;;;23.30;47.60;;;;;;5012818;28;20226;-65
2022/06/16 12:58:00;;;;;;;7.00;1.33;;;23.10;48.20;;;;;;5012682;28;20235;-65
2022/06/16 13:00:32;;;;;;;1.67;1.13;;;23.30;50.70;;;;;;5012845;28;20206;-63
2022/06/16 13:03:05;;;;;;;1.53;1.20;;;23.40;53.50;;;;;;5013226;28;20206;-63
2022/06/16 13:05:33;;;;;;;1.97;1.30;;;23.50;53.50;;;;;;5014345;28;20341;-65
2022/06/16 13:08:03;;;;;;;1.97;1.30;;;23.40;52.70;;;;;;5019664;28;20203;-65
2022/06/16 13:10:36;;;;;;;4.00;1.70;;;23.50;53.80;;;;;;5014486;28;20234;-66
2022/06/16 13:13:04;;;;;;;2.90;1.50;;;23.70;52.80;;;;;;5013042;28;20215;-64
2022/06/16 13:15:35;;;;;;;2.13;1.20;;;23.60;48.20;;;;;;5011831;28;20238;-64
2022/06/16 13:18:09;;;;;;;3.73;2.00;;;23.40;48.20;;;;;;5012926;28;20237;-65
2022/06/16 13:20:36;;;;;;;2.33;1.30;;;23.40;52.70;;;;;;5012850;28;20214;-66
2022/06/16 13:23:12;;;;;;;3.13;1.67;;;23.40;48.60;;;;;;5012647;28;20702;-66
2022/06/16 13:25:45;;;;;;;2.07;1.40;;;23.50;50.70;;;;;;5012330;28;20234;-66